Terminal Aerodrome Forecast
Issued by NWS

Home | Current Version | Previous Version | Text Only | Print | Product List | Glossary On
Versions: 1 2 3 4 5 6 7 8 9 10 11 12 13
000
FTAK31 PAFA 231138
TAFABT
TAF
PABT 231138Z 2312/2412 00000KT P6SM VCSH SCT025 BKN035 OVC050
     FM231500 31005KT 4SM -SN BR SCT015 BKN025 OVC035
     FM231800 02006KT 2SM -SN BR BKN015 OVC025
     FM232100 02006KT 1/2SM SN FZFG BKN005 OVC015
     FM240900 02008KT 1 1/2SM -SN BR BKN005 OVC015=

USA.gov is the U.S. government's official web portal to all federal, state and local government web resources and services.